Time;durP1;ratioP1;P1;durP2;ratioP2;P2;SDS_P1;SDS_P2;PMS_P1;PMS_P2;Temp;Humidity;BMP_temperature;BMP_pressure;BME280_temperature;BME280_humidity;BME280_pressure;Samples;Min_cycle;Max_cycle;Signal;HPM_P1;HPM_P2
2021/04/03 06:26:34;;;;;;;;;;;;;;;;;;5616720;23;19925;-88
2021/04/03 06:29:03;;;;;;;;;;;;;;;;;;5026474;28;20448;-89
2021/04/03 06:31:30;;;;;;;;;;;;;;;;;;5017937;28;20335;-89
2021/04/03 06:33:56;;;;;;;;;;;;;;;;;;5021950;28;19914;-89
2021/04/03 06:36:22;;;;;;;;;;;;;;;;;;5019459;28;19972;-90
2021/04/03 06:38:51;;;;;;;;;;;;;;;;;;5021069;28;21623;-90
2021/04/03 06:41:21;;;;;;;;;;;;;;;;;;5006106;28;19921;-89
2021/04/03 06:43:49;;;;;;;;;;;;;;;;;;5008473;28;19932;-90
2021/04/03 06:46:16;;;;;;;;;;;;;;;;;;5021989;28;19916;-89
2021/04/03 06:48:42;;;;;;;;;;;;;;;;;;5008112;28;19924;-91
2021/04/03 06:51:12;;;;;;;;;;;;;;;;;;5005302;28;19921;-89
2021/04/03 06:53:41;;;;;;;;;;;;;;;;;;5001093;28;19928;-89
2021/04/03 06:56:14;;;;;;;;;;;;;;;;;;5005364;28;19921;-90
2021/04/03 06:58:40;;;;;;;;;;;;;;;;;;5015399;28;19921;-90
2021/04/03 07:01:10;;;;;;;;;;;;;;;;;;5008615;28;19921;-87
2021/04/03 07:03:38;;;;;;;;;;;;;;;;;;5020880;28;19918;-89
2021/04/03 07:06:05;;;;;;;;;;;;;;;;;;5020492;28;19999;-89
2021/04/03 07:08:34;;;;;;;;;;;;;;;;;;5003019;28;19928;-89
2021/04/03 07:11:08;;;;;;;;;;;;;;;;;;5017478;28;19913;-89
2021/04/03 07:13:37;;;;;;;;;;;;;;;;;;5002793;28;19916;-89
2021/04/03 07:16:13;;;;;;;;;;;;;;;;;;5008740;28;19917;-89
2021/04/03 07:18:44;;;;;;;;;;;;;;;;;;5020650;28;20020;-88
2021/04/03 07:21:10;;;;;;;;;;;;;;;;;;5019098;28;19921;-87
2021/04/03 07:23:38;;;;;;;;;;;;;;;;;;5012910;28;19918;-86
2021/04/03 07:26:22;;;;;;;;;;;;;;;;;;5026093;28;19920;-85
2021/04/03 07:28:48;;;;;;;;;;;;;;;;;;5029249;28;21241;-85
2021/04/03 07:34:09;;;;;;;;;;;;;;;;;;5022156;28;19955;-87
2021/04/03 07:36:36;;;;;;;;;;;;;;;;;;5007320;28;19913;-85
2021/04/03 07:39:04;;;;;;;;;;;;;;;;;;5010492;28;19972;-87
2021/04/03 07:41:32;;;;;;;;;;;;;;;;;;5006502;28;20367;-87
2021/04/03 07:44:01;;;;;;;;;;;;;;;;;;5010596;28;19917;-85
2021/04/03 07:46:27;;;;;;;;;;;;;;;;;;5003916;28;19957;-86
2021/04/03 07:51:44;;;;;;;;;;;;;;;;;;5611485;23;19932;-89
2021/04/03 08:08:25;;;;;;;;;;;;;;;;;;5074836;28;20286;-87
2021/04/03 08:10:51;;;;;;;;;;;;;;;;;;5048780;28;19975;-86
2021/04/03 08:13:22;;;;;;;;;;;;;;;;;;5066148;28;20443;-87
2021/04/03 08:18:49;;;;;;;;;;;;;;;;;;5080859;28;19924;-87
2021/04/03 08:21:31;;;;;;;;;;;;;;;;;;5050181;28;19970;-88
2021/04/03 08:29:41;;;;;;;;;;;;;;;;;;5046519;28;20012;-92
2021/04/03 08:37:55;;;;;;;;;;;;;;;;;;4991716;28;19917;-89
2021/04/03 08:43:14;;;;;;;;;;;;;;;;;;4996191;28;19918;-88
2021/04/03 09:05:35;;;;;;;;;;;;;;;;;;5066824;28;20038;-88
2021/04/03 09:08:04;;;;;;;;;;;;;;;;;;5037372;28;19913;-89
2021/04/03 09:10:37;;;;;;;;;;;;;;;;;;5041654;28;19917;-89
2021/04/03 09:13:13;;;;;;;;;;;;;;;;;;5020254;28;19924;-89
2021/04/03 09:15:45;;;;;;;;;;;;;;;;;;5018430;28;19917;-88
2021/04/03 09:18:20;;;;;;;;;;;;;;;;;;5020005;28;20364;-89
2021/04/03 09:20:47;;;;;;;;;;;;;;;;;;5039276;28;19968;-88
2021/04/03 09:23:13;;;;;;;;;;;;;;;;;;5029538;28;19924;-87
2021/04/03 09:25:44;;;;;;;;;;;;;;;;;;5038992;28;19955;-87
2021/04/03 09:28:15;;;;;;;;;;;;;;;;;;5037943;28;19943;-86
2021/04/03 09:30:42;;;;;;;;;;;;;;;;;;5041329;28;19988;-85
2021/04/03 09:33:08;;;;;;;;;;;;;;;;;;5045611;28;19916;-86
2021/04/03 09:35:34;;;;;;;;;;;;;;;;;;5034760;28;19917;-86
2021/04/03 09:40:54;;;;;;;;;;;;;;;;;;5042774;28;19947;-89
2021/04/03 09:43:20;;;;;;;;;;;;;;;;;;5015269;28;19921;-88
2021/04/03 09:45:50;;;;;;;;;;;;;;;;;;5030234;28;19924;-88
2021/04/03 09:48:16;;;;;;;;;;;;;;;;;;5015174;28;19921;-88
2021/04/03 09:50:42;;;;;;;;;;;;;;;;;;5044297;28;19917;-87
2021/04/03 09:53:08;;;;;;;;;;;;;;;;;;5026125;28;20445;-87
2021/04/03 09:55:34;;;;;;;;;;;;;;;;;;5023934;28;20015;-88
2021/04/03 09:58:00;;;;;;;;;;;;;;;;;;5026329;28;20008;-87
2021/04/03 10:00:26;;;;;;;;;;;;;;;;;;5019423;28;20011;-87
2021/04/03 10:02:52;;;;;;;;;;;;;;;;;;5028438;28;19966;-87
2021/04/03 10:05:18;;;;;;;;;;;;;;;;;;5025724;28;19987;-87
2021/04/03 10:07:45;;;;;;;;;;;;;;;;;;5047708;28;19920;-86
2021/04/03 10:10:11;;;;;;;;;;;;;;;;;;5021393;28;19913;-86
2021/04/03 10:12:37;;;;;;;;;;;;;;;;;;5021221;28;19958;-87
2021/04/03 10:15:02;;;;;;;;;;;;;;;;;;5025227;28;19920;-86
2021/04/03 10:17:28;;;;;;;;;;;;;;;;;;5019237;28;19917;-87
2021/04/03 10:19:54;;;;;;;;;;;;;;;;;;5048558;28;19924;-88
2021/04/03 10:22:20;;;;;;;;;;;;;;;;;;5024508;28;19963;-88
2021/04/03 10:24:46;;;;;;;;;;;;;;;;;;5015758;28;19952;-88
2021/04/03 10:27:12;;;;;;;;;;;;;;;;;;5028670;28;20264;-88
2021/04/03 10:29:38;;;;;;;;;;;;;;;;;;5049000;28;19966;-88
2021/04/03 10:32:04;;;;;;;;;;;;;;;;;;5022272;28;20024;-89
2021/04/03 10:34:33;;;;;;;;;;;;;;;;;;5018302;28;19917;-88
2021/04/03 10:36:59;;;;;;;;;;;;;;;;;;5025364;28;19916;-88
2021/04/03 10:39:25;;;;;;;;;;;;;;;;;;5053246;28;20372;-88
2021/04/03 10:41:51;;;;;;;;;;;;;;;;;;5038546;28;20008;-89
2021/04/03 10:44:18;;;;;;;;;;;;;;;;;;5021528;28;19916;-87
2021/04/03 10:46:45;;;;;;;;;;;;;;;;;;5034509;28;19974;-88
2021/04/03 10:49:11;;;;;;;;;;;;;;;;;;5042633;28;20631;-88
2021/04/03 10:51:38;;;;;;;;;;;;;;;;;;5042952;28;20313;-89
2021/04/03 10:54:26;;;;;;;;;;;;;;;;;;5009384;28;19964;-89
2021/04/03 10:56:51;;;;;;;;;;;;;;;;;;5005989;28;19913;-86
2021/04/03 10:59:18;;;;;;;;;;;;;;;;;;4986034;28;20320;-90
2021/04/03 11:15:20;;;;;;;;;;;;;;;;;;5121677;22;19950;-88
2021/04/03 11:17:46;;;;;;;;;;;;;;;;;;5044124;28;20359;-91
2021/04/03 11:20:14;;;;;;;;;;;;;;;;;;5048762;28;19920;-93
2021/04/03 11:22:40;;;;;;;;;;;;;;;;;;5054867;28;19916;-91
2021/04/03 11:25:06;;;;;;;;;;;;;;;;;;5051117;28;19917;-90
2021/04/03 11:27:32;;;;;;;;;;;;;;;;;;5042759;28;19961;-86
2021/04/03 11:30:12;;;;;;;;;;;;;;;;;;5039572;28;20050;-87
2021/04/03 11:32:38;;;;;;;;;;;;;;;;;;5042007;28;20003;-85
2021/04/03 11:35:04;;;;;;;;;;;;;;;;;;5036610;28;19943;-86
2021/04/03 11:37:30;;;;;;;;;;;;;;;;;;5046115;28;19924;-87
2021/04/03 11:39:56;;;;;;;;;;;;;;;;;;5064137;28;19956;-86
2021/04/03 11:42:22;;;;;;;;;;;;;;;;;;5043263;28;20100;-87
2021/04/03 11:44:48;;;;;;;;;;;;;;;;;;5043755;28;19916;-88
2021/04/03 11:47:15;;;;;;;;;;;;;;;;;;5042547;28;20399;-88
2021/04/03 11:49:43;;;;;;;;;;;;;;;;;;5043653;28;20328;-94
2021/04/03 11:52:09;;;;;;;;;;;;;;;;;;5043847;28;19929;-90
2021/04/03 12:05:33;;;;;;;;;;;;;;;;;;;;;
2021/04/03 12:13:26;;;;;;;;;;;;;;;;;;5162622;23;19959;-90
2021/04/03 12:15:53;;;;;;;;;;;;;;;;;;5048898;28;19962;-88
2021/04/03 12:18:20;;;;;;;;;;;;;;;;;;5049343;28;19935;-92
2021/04/03 12:20:46;;;;;;;;;;;;;;;;;;5049483;28;19966;-90
2021/04/03 12:23:12;;;;;;;;;;;;;;;;;;5051609;28;19916;-92
2021/04/03 12:25:38;;;;;;;;;;;;;;;;;;5051611;28;19920;-92
2021/04/03 12:28:05;;;;;;;;;;;;;;;;;;5063465;28;19920;-90
2021/04/03 12:30:34;;;;;;;;;;;;;;;;;;5067149;28;19923;-92
2021/04/03 12:33:04;;;;;;;;;;;;;;;;;;5050550;28;19916;-93
2021/04/03 12:35:34;;;;;;;;;;;;;;;;;;5060190;28;19912;-89
2021/04/03 12:38:15;;;;;;;;;;;;;;;;;;5037822;28;19913;-94
2021/04/03 12:40:44;;;;;;;;;;;;;;;;;;5028073;28;20422;-89
2021/04/03 12:43:10;;;;;;;;;;;;;;;;;;5019193;28;20401;-89
2021/04/03 12:45:36;;;;;;;;;;;;;;;;;;5021951;28;20008;-90
2021/04/03 12:48:02;;;;;;;;;;;;;;;;;;5036559;28;19978;-89
2021/04/03 12:50:28;;;;;;;;;;;;;;;;;;5037184;28;19956;-93
2021/04/03 12:52:54;;;;;;;;;;;;;;;;;;5021029;28;20427;-90
2021/04/03 12:55:20;;;;;;;;;;;;;;;;;;5020713;28;19971;-88
2021/04/03 12:57:46;;;;;;;;;;;;;;;;;;5021977;28;19956;-88
2021/04/03 13:00:12;;;;;;;;;;;;;;;;;;5017091;28;19963;-88
2021/04/03 13:02:39;;;;;;;;;;;;;;;;;;5037365;28;19971;-86
2021/04/03 13:05:05;;;;;;;;;;;;;;;;;;5016482;28;19917;-87
2021/04/03 13:07:31;;;;;;;;;;;;;;;;;;5037531;28;19985;-86
2021/04/03 13:09:57;;;;;;;;;;;;;;;;;;5019474;28;19917;-86
2021/04/03 13:12:23;;;;;;;;;;;;;;;;;;5004760;28;19921;-86
2021/04/03 13:14:49;;;;;;;;;;;;;;;;;;4995494;28;19976;-88
2021/04/03 13:17:15;;;;;;;;;;;;;;;;;;4987113;28;19924;-86
2021/04/03 13:19:43;;;;;;;;;;;;;;;;;;4994616;28;19949;-87
2021/04/03 13:22:09;;;;;;;;;;;;;;;;;;4995634;28;19922;-86
2021/04/03 13:24:35;;;;;;;;;;;;;;;;;;4995501;28;19949;-86
2021/04/03 13:27:01;;;;;;;;;;;;;;;;;;4996164;28;20022;-87
2021/04/03 13:29:27;;;;;;;;;;;;;;;;;;4997658;28;19968;-86
2021/04/03 13:31:53;;;;;;;;;;;;;;;;;;4997404;28;19921;-84
2021/04/03 13:34:19;;;;;;;;;;;;;;;;;;4995109;28;20004;-87
2021/04/03 13:36:45;;;;;;;;;;;;;;;;;;4993765;28;19969;-86
2021/04/03 13:39:12;;;;;;;;;;;;;;;;;;4988518;28;20337;-89
2021/04/03 13:41:39;;;;;;;;;;;;;;;;;;4997386;28;20247;-87
2021/04/03 13:44:05;;;;;;;;;;;;;;;;;;5006338;28;19928;-88
2021/04/03 13:46:31;;;;;;;;;;;;;;;;;;5001952;28;19945;-89
2021/04/03 13:48:57;;;;;;;;;;;;;;;;;;5009126;28;19918;-88
2021/04/03 13:51:23;;;;;;;;;;;;;;;;;;5000025;28;19941;-87
2021/04/03 13:53:49;;;;;;;;;;;;;;;;;;5004658;28;20368;-87
2021/04/03 13:56:16;;;;;;;;;;;;;;;;;;5008320;28;21506;-87
2021/04/03 13:58:42;;;;;;;;;;;;;;;;;;5013354;28;19917;-87
2021/04/03 14:01:08;;;;;;;;;;;;;;;;;;5002164;28;19924;-86
2021/04/03 14:03:38;;;;;;;;;;;;;;;;;;4993530;28;20365;-86
2021/04/03 14:06:07;;;;;;;;;;;;;;;;;;5010093;28;20423;-87
2021/04/03 14:08:33;;;;;;;;;;;;;;;;;;5005850;28;20357;-87
2021/04/03 14:10:59;;;;;;;;;;;;;;;;;;5009765;28;20279;-88
2021/04/03 14:13:26;;;;;;;;;;;;;;;;;;5038736;28;19963;-87
2021/04/03 14:15:52;;;;;;;;;;;;;;;;;;5028779;28;20357;-87
2021/04/03 14:18:18;;;;;;;;;;;;;;;;;;5032708;28;19923;-87
2021/04/03 14:20:44;;;;;;;;;;;;;;;;;;5041912;28;20369;-87
2021/04/03 14:23:10;;;;;;;;;;;;;;;;;;5020037;28;20050;-86
2021/04/03 14:25:36;;;;;;;;;;;;;;;;;;5038478;28;19916;-87
2021/04/03 14:28:02;;;;;;;;;;;;;;;;;;5033298;28;19953;-88
2021/04/03 14:30:28;;;;;;;;;;;;;;;;;;5035931;28;19959;-88
2021/04/03 14:32:54;;;;;;;;;;;;;;;;;;5024552;28;19917;-87
2021/04/03 14:35:20;;;;;;;;;;;;;;;;;;5022457;28;19963;-87
2021/04/03 14:37:46;;;;;;;;;;;;;;;;;;5026447;28;19952;-88
2021/04/03 14:40:12;;;;;;;;;;;;;;;;;;5027961;28;19929;-85
2021/04/03 14:42:37;;;;;;;;;;;;;;;;;;5020284;28;19959;-87
2021/04/03 14:45:03;;;;;;;;;;;;;;;;;;5025423;28;19913;-88
2021/04/03 14:47:29;;;;;;;;;;;;;;;;;;5023666;28;20665;-86
2021/04/03 14:49:55;;;;;;;;;;;;;;;;;;5016237;28;19980;-87
2021/04/03 14:52:21;;;;;;;;;;;;;;;;;;5022993;28;19963;-87
2021/04/03 14:54:47;;;;;;;;;;;;;;;;;;5031585;28;19913;-88
2021/04/03 14:57:13;;;;;;;;;;;;;;;;;;5020086;28;20555;-88
2021/04/03 14:59:39;;;;;;;;;;;;;;;;;;5044476;28;19938;-92
2021/04/03 15:02:05;;;;;;;;;;;;;;;;;;5021987;28;19959;-89
2021/04/03 15:04:32;;;;;;;;;;;;;;;;;;5033146;28;20053;-88
2021/04/03 15:06:58;;;;;;;;;;;;;;;;;;5024873;28;19917;-87
2021/04/03 15:09:25;;;;;;;;;;;;;;;;;;5030991;28;19967;-89
2021/04/03 15:11:52;;;;;;;;;;;;;;;;;;5014798;28;19925;-87
2021/04/03 15:14:19;;;;;;;;;;;;;;;;;;5004019;28;19926;-86
2021/04/03 15:16:46;;;;;;;;;;;;;;;;;;5011465;28;19947;-87
2021/04/03 15:19:12;;;;;;;;;;;;;;;;;;5007516;28;19918;-87
2021/04/03 15:40:38;;;;;;;;;;;;;;;;;;5955660;23;19925;-88
2021/04/03 15:46:03;;;;;;;;;;;;;;;;;;5136892;23;19924;-96
2021/04/03 15:51:15;;;;;;;;;;;;;;;;;;6076904;22;19935;-96
2021/04/03 15:53:48;;;;;;;;;;;;;;;;;;5292355;23;20653;-96
